createdAt,value
2018-07-11T00:01:22.655Z,99694.44
2018-07-11T00:03:54.080Z,99687.44
2018-07-11T00:06:25.347Z,99686.88
2018-07-11T00:08:55.584Z,99690.08
2018-07-11T00:11:25.817Z,99688.66
2018-07-11T00:13:56.065Z,99683.25
2018-07-11T00:16:26.586Z,99684.66
2018-07-11T00:18:56.613Z,99677.97
2018-07-11T00:21:26.908Z,99678.73
2018-07-11T00:23:57.157Z,99677.58
2018-07-11T00:26:27.464Z,99682.96
2018-07-11T00:31:33.070Z,99678.50
2018-07-11T00:34:03.294Z,99670.63
2018-07-11T00:36:33.581Z,99671.22
2018-07-11T00:39:04.906Z,99672.77
2018-07-11T00:41:35.042Z,99674.09
2018-07-11T00:44:05.118Z,99672.41
2018-07-11T00:46:35.207Z,99680.25
2018-07-11T00:49:05.527Z,99682.13
2018-07-11T00:51:35.813Z,99681.35
2018-07-11T00:54:05.885Z,99682.83
2018-07-11T00:56:36.173Z,99682.83
2018-07-11T00:59:12.666Z,99675.00
2018-07-11T01:01:42.992Z,99668.27
2018-07-11T01:04:13.217Z,99668.67
2018-07-11T01:06:43.317Z,99664.88
2018-07-11T01:09:13.446Z,99661.90
2018-07-11T01:11:43.513Z,99667.44
2018-07-11T01:14:13.801Z,99669.05
2018-07-11T01:16:43.848Z,99656.83
2018-07-11T01:19:15.056Z,99658.84
2018-07-11T01:21:45.385Z,99664.79
2018-07-11T01:24:15.697Z,99665.03
2018-07-11T01:26:45.806Z,99653.09
2018-07-11T01:29:16.030Z,99653.02
2018-07-11T01:31:46.310Z,99653.61
2018-07-11T01:34:16.566Z,99650.65
2018-07-11T01:36:46.753Z,99652.03
2018-07-11T01:39:17.038Z,99659.38
2018-07-11T01:41:47.610Z,99658.56
2018-07-11T01:44:17.840Z,99652.83
2018-07-11T01:46:50.357Z,99660.08
2018-07-11T01:49:20.654Z,99660.38
2018-07-11T01:52:02.064Z,99658.42
2018-07-11T01:54:32.063Z,99652.15
2018-07-11T01:57:02.374Z,99653.48
2018-07-11T01:59:35.783Z,99653.71
2018-07-11T02:02:06.344Z,99660.73
2018-07-11T02:04:39.505Z,99658.91
2018-07-11T02:07:10.173Z,99657.56
2018-07-11T02:09:40.231Z,99662.26
2018-07-11T02:12:10.534Z,99661.06
2018-07-11T02:14:41.216Z,99649.21
2018-07-11T02:17:11.474Z,99654.54
2018-07-11T02:19:41.801Z,99653.19
2018-07-11T02:22:12.069Z,99659.92
2018-07-11T02:24:42.392Z,99652.61
2018-07-11T02:27:12.410Z,99650.67
2018-07-11T02:29:42.618Z,99655.54
2018-07-11T02:32:12.897Z,99659.66
2018-07-11T02:34:43.176Z,99652.91
2018-07-11T02:37:13.596Z,99651.61
2018-07-11T02:39:43.850Z,99658.37
2018-07-11T02:42:14.151Z,99660.40
2018-07-11T02:44:44.388Z,99660.62
2018-07-11T02:47:45.417Z,99664.13
2018-07-11T02:50:15.944Z,99663.52
2018-07-11T02:52:46.356Z,99668.09
2018-07-11T02:55:16.566Z,99669.44
2018-07-11T02:57:46.882Z,99670.51
2018-07-11T03:00:17.122Z,99669.11
2018-07-11T03:02:47.333Z,99679.44
2018-07-11T03:05:17.630Z,99686.47
2018-07-11T03:07:47.891Z,99683.82
2018-07-11T03:10:17.849Z,99680.84
2018-07-11T03:12:48.084Z,99680.27
2018-07-11T03:15:18.597Z,99677.84
2018-07-11T03:17:48.700Z,99678.17
2018-07-11T03:20:18.907Z,99688.70
2018-07-11T03:22:49.231Z,99680.84
2018-07-11T03:25:19.429Z,99685.19
2018-07-11T03:27:49.665Z,99682.77
2018-07-11T03:30:19.881Z,99680.93
2018-07-11T03:32:50.367Z,99680.34
2018-07-11T03:35:20.645Z,99677.95
2018-07-11T03:37:51.177Z,99668.20
2018-07-11T03:40:21.645Z,99669.00
2018-07-11T03:42:51.838Z,99675.75
2018-07-11T03:45:22.096Z,99669.80
2018-07-11T03:47:52.329Z,99669.88
2018-07-11T03:50:22.605Z,99673.92
2018-07-11T03:52:52.913Z,99676.69
2018-07-11T03:55:23.143Z,99685.86
2018-07-11T03:57:53.344Z,99688.04
2018-07-11T04:00:26.063Z,99677.50
2018-07-11T04:02:57.495Z,99682.09
2018-07-11T04:05:27.693Z,99688.37
2018-07-11T04:07:57.903Z,99684.66
2018-07-11T04:10:28.085Z,99680.06
2018-07-11T04:13:01.246Z,99681.63
2018-07-11T04:15:31.465Z,99683.52
2018-07-11T04:18:01.675Z,99687.83
2018-07-11T04:20:31.887Z,99690.22
2018-07-11T04:23:02.093Z,99694.79
2018-07-11T04:25:32.346Z,99692.10
2018-07-11T04:28:02.977Z,99695.66
2018-07-11T04:30:33.247Z,99697.90
2018-07-11T04:33:03.606Z,99706.67
2018-07-11T04:35:33.805Z,99702.91
2018-07-11T04:38:04.129Z,99707.00
2018-07-11T04:40:34.528Z,99706.95
2018-07-11T04:43:04.891Z,99703.72
2018-07-11T04:45:35.474Z,99696.69
2018-07-11T04:48:06.913Z,99708.30
2018-07-11T04:50:37.442Z,99704.53
2018-07-11T04:53:12.182Z,99709.13
2018-07-11T04:55:43.805Z,99713.22
2018-07-11T04:58:14.058Z,99712.41
2018-07-11T05:00:44.301Z,99707.83
2018-07-11T05:03:14.515Z,99714.32
2018-07-11T05:05:44.732Z,99715.22
2018-07-11T05:08:15.012Z,99713.64
2018-07-11T05:10:45.240Z,99717.48
2018-07-11T05:13:15.491Z,99714.52
2018-07-11T05:15:45.742Z,99714.02
2018-07-11T05:18:16.349Z,99716.17
2018-07-11T05:20:47.174Z,99719.92
2018-07-11T05:23:17.421Z,99719.65
2018-07-11T05:25:47.610Z,99713.70
2018-07-11T05:28:17.805Z,99719.38
2018-07-11T05:30:48.042Z,99723.43
2018-07-11T05:33:18.325Z,99724.25
2018-07-11T05:35:48.561Z,99722.62
2018-07-11T05:38:19.651Z,99723.66
2018-07-11T05:40:49.894Z,99724.47
2018-07-11T05:43:20.071Z,99727.98
2018-07-11T05:45:50.296Z,99735.55
2018-07-11T05:48:21.576Z,99730.63
2018-07-11T05:50:51.815Z,99729.86
2018-07-11T05:53:21.828Z,99736.58
2018-07-11T05:55:52.099Z,99741.17
2018-07-11T05:58:22.621Z,99740.95
2018-07-11T06:00:52.924Z,99738.52
2018-07-11T06:03:23.290Z,99736.63
2018-07-11T06:05:53.886Z,99742.04
2018-07-11T06:08:24.413Z,99744.79
2018-07-11T06:10:54.889Z,99746.65
2018-07-11T06:13:24.915Z,99740.97
2018-07-11T06:15:55.093Z,99742.59
2018-07-11T06:18:25.753Z,99739.93
2018-07-11T06:20:56.016Z,99735.28
2018-07-11T06:23:25.985Z,99731.23
2018-07-11T06:25:56.002Z,99729.38
2018-07-11T06:28:26.186Z,99725.82
2018-07-11T06:30:56.397Z,99731.56
2018-07-11T06:33:26.778Z,99730.20
2018-07-11T06:35:56.750Z,99731.59
2018-07-11T06:38:26.934Z,99737.59
2018-07-11T06:40:57.166Z,99737.33
2018-07-11T06:43:27.350Z,99742.79
2018-07-11T06:45:57.582Z,99743.09
2018-07-11T06:48:27.805Z,99743.95
2018-07-11T06:50:57.845Z,99736.95
2018-07-11T06:53:27.865Z,99742.67
2018-07-11T06:55:58.065Z,99747.09
2018-07-11T06:58:28.295Z,99741.42
2018-07-11T07:00:58.476Z,99745.25
2018-07-11T07:03:28.762Z,99748.27
2018-07-11T07:05:59.030Z,99745.56
2018-07-11T07:08:29.229Z,99744.76
2018-07-11T07:10:59.694Z,99745.59
2018-07-11T07:13:30.169Z,99746.65
2018-07-11T07:16:01.082Z,99752.05
2018-07-11T07:18:31.935Z,99757.42
2018-07-11T07:21:02.891Z,99756.31
2018-07-11T07:23:34.374Z,99755.45
2018-07-11T07:26:05.038Z,99755.13
2018-07-11T07:28:35.278Z,99755.36
2018-07-11T07:31:05.621Z,99747.94
2018-07-11T07:33:35.914Z,99750.58
2018-07-11T07:36:06.198Z,99751.13
2018-07-11T07:38:39.761Z,99748.37
2018-07-11T07:41:10.459Z,99737.75
2018-07-11T07:43:42.590Z,99739.09
2018-07-11T07:46:13.471Z,99733.00
2018-07-11T07:48:44.108Z,99743.86
2018-07-11T07:51:14.714Z,99747.80
2018-07-11T07:53:45.609Z,99740.92
2018-07-11T07:56:16.446Z,99734.16
2018-07-11T07:58:46.699Z,99729.55
2018-07-11T08:01:17.589Z,99730.55
2018-07-11T08:03:47.581Z,99731.82
2018-07-11T08:06:18.519Z,99735.37
2018-07-11T08:08:50.693Z,99733.68
2018-07-11T08:11:21.598Z,99745.11
2018-07-11T08:13:52.462Z,99741.50
2018-07-11T08:16:23.286Z,99741.13
2018-07-11T08:18:54.054Z,99734.13
2018-07-11T08:21:24.754Z,99730.62
2018-07-11T08:24:06.712Z,99732.13
2018-07-11T08:26:48.868Z,99731.88
2018-07-11T08:29:31.413Z,99732.13
2018-07-11T08:33:15.046Z,99726.53
2018-07-11T08:36:00.407Z,99729.33
2018-07-11T08:38:56.480Z,99728.73
2018-07-11T08:41:38.252Z,99731.16
2018-07-11T08:44:19.971Z,99725.42
2018-07-11T08:50:03.173Z,99720.06
2018-07-11T08:54:48.900Z,99731.70
2018-07-11T08:57:28.983Z,99737.20
2018-07-11T09:00:12.375Z,99744.36
2018-07-11T09:03:58.247Z,99745.30
2018-07-11T09:07:37.245Z,99742.23
2018-07-11T09:11:22.132Z,99737.25
2018-07-11T09:14:38.448Z,99753.64
2018-07-11T09:17:17.062Z,99751.58
2018-07-11T09:24:09.561Z,99749.02
2018-07-11T09:26:40.922Z,99743.16
2018-07-11T09:29:11.974Z,99745.64
2018-07-11T09:31:43.487Z,99743.07
2018-07-11T09:34:14.405Z,99739.83
2018-07-11T09:36:45.410Z,99744.03
2018-07-11T09:39:16.216Z,99743.53
2018-07-11T09:41:47.036Z,99741.19
2018-07-11T09:44:17.590Z,99742.11
2018-07-11T09:46:48.206Z,99739.39
2018-07-11T09:49:18.989Z,99743.97
2018-07-11T09:51:49.936Z,99742.52
2018-07-11T09:54:20.761Z,99736.90
2018-07-11T09:56:51.885Z,99740.09
2018-07-11T09:59:22.173Z,99737.97
2018-07-11T10:01:53.055Z,99737.13
2018-07-11T10:04:23.298Z,99746.50
2018-07-11T10:06:54.544Z,99750.77
2018-07-11T10:09:24.789Z,99742.18
2018-07-11T10:11:55.040Z,99740.87
2018-07-11T10:14:25.824Z,99745.88
2018-07-11T10:16:56.035Z,99738.07
2018-07-11T10:19:26.865Z,99745.42
2018-07-11T10:21:57.431Z,99743.56
2018-07-11T10:24:28.270Z,99748.06
2018-07-11T10:26:59.061Z,99749.48
2018-07-11T10:29:29.865Z,99751.50
2018-07-11T10:32:00.720Z,99752.98
2018-07-11T10:34:31.567Z,99759.23
2018-07-11T10:37:02.571Z,99757.80
2018-07-11T10:39:33.429Z,99751.19
2018-07-11T10:42:04.213Z,99753.36
2018-07-11T10:44:35.025Z,99753.88
2018-07-11T10:47:07.781Z,99752.61
2018-07-11T10:49:38.613Z,99745.75
2018-07-11T10:52:09.706Z,99740.97
2018-07-11T10:54:40.969Z,99735.00
2018-07-11T10:57:11.733Z,99734.02
2018-07-11T10:59:42.838Z,99734.71
2018-07-11T11:02:18.112Z,99722.71
2018-07-11T11:04:48.994Z,99722.34
2018-07-11T11:07:19.997Z,99702.94
2018-07-11T11:09:50.841Z,99710.10
2018-07-11T11:12:21.651Z,99710.78
2018-07-11T11:14:52.521Z,99715.31
2018-07-11T11:17:23.329Z,99711.56
2018-07-11T11:19:54.149Z,99714.04
2018-07-11T11:22:24.957Z,99714.11
2018-07-11T11:24:55.865Z,99710.13
2018-07-11T11:27:26.638Z,99717.92
2018-07-11T11:29:57.537Z,99717.83
2018-07-11T11:32:28.454Z,99708.92
2018-07-11T11:34:59.575Z,99699.39
2018-07-11T11:37:30.773Z,99702.48
2018-07-11T11:40:01.604Z,99703.87
2018-07-11T11:42:32.603Z,99702.84
2018-07-11T11:45:03.468Z,99700.42
2018-07-11T11:47:34.275Z,99693.39
2018-07-11T11:50:05.481Z,99693.90
2018-07-11T11:52:36.268Z,99693.48
2018-07-11T11:55:07.106Z,99696.52
2018-07-11T11:57:37.871Z,99705.86
2018-07-11T12:00:08.698Z,99701.50
2018-07-11T12:02:39.474Z,99694.84
2018-07-11T12:05:10.285Z,99695.87
2018-07-11T12:07:41.147Z,99695.44
2018-07-11T12:10:12.080Z,99696.97
2018-07-11T12:12:42.885Z,99685.92
2018-07-11T12:15:14.541Z,99681.89
2018-07-11T12:17:45.333Z,99684.31
2018-07-11T12:20:16.159Z,99677.34
2018-07-11T12:22:46.996Z,99671.59
2018-07-11T12:25:18.073Z,99668.52
2018-07-11T12:27:48.822Z,99663.83
2018-07-11T12:30:19.824Z,99662.41
2018-07-11T12:32:50.533Z,99659.66
2018-07-11T12:35:21.311Z,99671.00
2018-07-11T12:37:52.360Z,99655.33
2018-07-11T12:40:22.987Z,99656.60
2018-07-11T12:42:53.761Z,99650.27
2018-07-11T12:45:24.577Z,99650.13
2018-07-11T12:48:00.444Z,99645.80
2018-07-11T12:50:31.249Z,99637.47
2018-07-11T12:53:02.185Z,99643.02
2018-07-11T12:55:33.045Z,99645.22
2018-07-11T12:58:03.913Z,99641.58
2018-07-11T13:00:34.533Z,99640.53
2018-07-11T13:03:05.357Z,99635.38
2018-07-11T13:05:36.177Z,99636.16
2018-07-11T13:08:06.825Z,99644.00
2018-07-11T13:10:38.001Z,99643.06
2018-07-11T13:13:08.778Z,99642.56
2018-07-11T13:15:39.587Z,99640.52
2018-07-11T13:18:10.386Z,99637.19
2018-07-11T13:20:41.191Z,99642.50
2018-07-11T13:23:11.972Z,99643.08
2018-07-11T13:25:42.643Z,99634.59
2018-07-11T13:28:13.662Z,99631.05
2018-07-11T13:30:44.529Z,99626.27
2018-07-11T13:33:16.374Z,99619.64
2018-07-11T13:35:47.188Z,99615.69
2018-07-11T13:38:18.193Z,99611.23
2018-07-11T13:40:48.972Z,99602.17
2018-07-11T13:43:19.737Z,99596.86
2018-07-11T13:45:50.294Z,99596.40
2018-07-11T13:48:20.917Z,99596.87
2018-07-11T13:50:52.093Z,99593.87
2018-07-11T13:53:22.934Z,99596.10
2018-07-11T13:55:53.786Z,99602.11
2018-07-11T13:58:24.395Z,99612.56
2018-07-11T14:00:59.146Z,99610.95
2018-07-11T14:03:30.057Z,99611.54
2018-07-11T14:06:00.681Z,99609.23
2018-07-11T14:08:31.519Z,99601.64
2018-07-11T14:11:03.402Z,99596.72
2018-07-11T14:13:34.738Z,99598.17
2018-07-11T14:16:05.458Z,99598.70
2018-07-11T14:18:36.281Z,99600.06
2018-07-11T14:21:07.689Z,99596.28
2018-07-11T14:23:41.169Z,99590.88
2018-07-11T14:26:14.794Z,99589.52
2018-07-11T14:28:53.375Z,99592.17
2018-07-11T14:31:35.912Z,99588.53
2018-07-11T14:34:08.676Z,99593.05
2018-07-11T14:36:39.632Z,99594.33
2018-07-11T14:39:10.557Z,99586.20
2018-07-11T14:41:41.344Z,99588.63
2018-07-11T14:44:12.216Z,99592.83
2018-07-11T14:46:43.135Z,99591.13
2018-07-11T14:49:15.745Z,99589.98
2018-07-11T14:51:46.661Z,99582.80
2018-07-11T14:54:17.821Z,99589.83
2018-07-11T14:56:48.755Z,99595.69
2018-07-11T14:59:19.603Z,99598.65
2018-07-11T15:01:50.441Z,99597.98
2018-07-11T15:04:21.202Z,99596.27
2018-07-11T15:06:51.782Z,99592.74
2018-07-11T15:09:22.850Z,99591.98
2018-07-11T15:11:54.024Z,99585.83
2018-07-11T15:14:25.018Z,99585.03
2018-07-11T15:16:55.906Z,99576.80
2018-07-11T15:19:26.733Z,99576.55
2018-07-11T15:21:57.535Z,99564.70
2018-07-11T15:24:28.371Z,99565.83
2018-07-11T15:26:59.106Z,99560.30
2018-07-11T15:29:29.677Z,99559.28
2018-07-11T15:32:00.893Z,99563.03
2018-07-11T15:34:32.049Z,99567.72
2018-07-11T15:37:02.985Z,99580.58
2018-07-11T15:39:33.974Z,99581.52
2018-07-11T15:42:05.076Z,99579.11
2018-07-11T15:44:35.679Z,99574.83
2018-07-11T15:47:07.051Z,99576.27
2018-07-11T15:49:37.876Z,99580.08
2018-07-11T15:52:08.745Z,99577.83
2018-07-11T15:54:40.054Z,99586.90
2018-07-11T15:57:11.217Z,99575.38
2018-07-11T15:59:53.626Z,99570.27
2018-07-11T16:02:24.742Z,99568.06
2018-07-11T16:04:55.601Z,99558.02
2018-07-11T16:07:29.873Z,99562.95
2018-07-11T16:10:00.909Z,99566.00
2018-07-11T16:12:31.713Z,99565.77
2018-07-11T16:15:02.481Z,99560.33
2018-07-11T16:17:33.551Z,99561.77
2018-07-11T16:20:04.389Z,99566.42
2018-07-11T16:22:35.272Z,99568.95
2018-07-11T16:25:06.513Z,99569.44
2018-07-11T16:27:37.133Z,99569.52
2018-07-11T16:30:07.898Z,99572.17
2018-07-11T16:32:38.743Z,99579.73
2018-07-11T16:35:09.505Z,99584.72
2018-07-11T16:37:40.325Z,99583.25
2018-07-11T16:40:11.182Z,99587.42
2018-07-11T16:42:42.707Z,99591.83
2018-07-11T16:45:13.828Z,99594.09
2018-07-11T16:47:45.418Z,99591.43
2018-07-11T16:50:16.897Z,99598.39
2018-07-11T16:52:47.887Z,99589.87
2018-07-11T16:55:18.508Z,99587.13
2018-07-11T16:57:50.843Z,99585.73
2018-07-11T17:00:25.137Z,99586.56
2018-07-11T17:03:12.228Z,99595.72
2018-07-11T17:05:48.828Z,99595.14
2018-07-11T17:08:29.565Z,99617.05
2018-07-11T17:11:07.745Z,99637.58
2018-07-11T17:13:38.170Z,99661.82
2018-07-11T17:16:08.549Z,99673.86
2018-07-11T17:18:45.127Z,99675.81
2018-07-11T17:21:23.112Z,99683.17
2018-07-11T17:23:57.616Z,99694.88
2018-07-11T17:26:27.889Z,99696.50
2018-07-11T17:28:59.973Z,99701.89
2018-07-11T17:31:30.491Z,99703.39
2018-07-11T17:34:00.721Z,99698.55
2018-07-11T17:36:33.900Z,99701.59
2018-07-11T17:39:05.326Z,99702.50
2018-07-11T17:41:36.402Z,99708.62
2018-07-11T17:44:06.672Z,99703.64
2018-07-11T17:46:37.224Z,99714.08
2018-07-11T17:49:10.919Z,99710.73
2018-07-11T17:52:19.085Z,99712.82
2018-07-11T17:55:10.597Z,99710.59
2018-07-11T17:58:01.127Z,99703.78
2018-07-11T18:00:36.835Z,99704.00
2018-07-11T18:03:17.701Z,99707.78
2018-07-11T18:05:57.328Z,99713.98
2018-07-11T18:08:33.946Z,99714.64
2018-07-11T18:11:04.291Z,99714.70
2018-07-11T18:13:42.954Z,99715.55
2018-07-11T18:16:40.106Z,99712.72
2018-07-11T18:19:21.089Z,99712.83
2018-07-11T18:22:02.969Z,99710.67
2018-07-11T18:24:41.011Z,99709.03
2018-07-11T18:27:22.617Z,99706.80
2018-07-11T18:30:03.544Z,99708.44
2018-07-11T18:32:50.942Z,99700.59
2018-07-11T18:35:31.382Z,99704.28
2018-07-11T18:39:08.182Z,99696.66
2018-07-11T18:41:42.841Z,99692.67
2018-07-11T18:45:11.628Z,99686.45
2018-07-11T18:47:58.113Z,99689.34
2018-07-11T18:50:46.958Z,99686.66
2018-07-11T18:54:26.799Z,99685.38
2018-07-11T18:57:08.876Z,99681.54
2018-07-11T19:00:50.338Z,99678.27
2018-07-11T19:03:31.501Z,99676.03
2018-07-11T19:06:13.753Z,99685.82
2018-07-11T19:08:53.681Z,99687.66
2018-07-11T19:11:28.400Z,99696.89
2018-07-11T19:14:05.142Z,99703.91
2018-07-11T19:18:53.197Z,99702.28
2018-07-11T19:21:56.857Z,99711.41
2018-07-11T19:24:38.694Z,99706.20
2018-07-11T19:27:21.283Z,99705.35
2018-07-11T19:30:02.967Z,99706.69
2018-07-11T19:32:39.206Z,99704.45
2018-07-11T19:35:16.695Z,99702.63
2018-07-11T19:38:57.090Z,99698.91
2018-07-11T19:41:37.265Z,99703.11
2018-07-11T19:44:21.003Z,99701.48
2018-07-11T19:49:05.933Z,99707.95
2018-07-11T19:51:49.340Z,99714.07
2018-07-11T19:54:35.462Z,99717.75
2018-07-11T19:57:05.492Z,99722.61
2018-07-11T19:59:35.899Z,99718.56
2018-07-11T20:02:06.209Z,99724.03
2018-07-11T20:04:36.544Z,99718.08
2018-07-11T20:07:07.187Z,99718.66
2018-07-11T20:09:37.471Z,99719.27
2018-07-11T20:12:07.474Z,99722.52
2018-07-11T20:14:37.692Z,99722.80
2018-07-11T20:17:07.908Z,99716.38
2018-07-11T20:19:38.139Z,99719.28
2018-07-11T20:22:08.342Z,99724.59
2018-07-11T20:24:38.822Z,99717.52
2018-07-11T20:27:09.040Z,99719.89
2018-07-11T20:29:39.329Z,99717.73
2018-07-11T20:32:09.606Z,99716.17
2018-07-11T20:34:39.865Z,99715.94
2018-07-11T20:37:10.456Z,99714.31
2018-07-11T20:39:40.685Z,99710.42
2018-07-11T20:42:10.985Z,99713.03
2018-07-11T20:44:41.204Z,99716.08
2018-07-11T20:47:11.443Z,99716.66
2018-07-11T20:49:41.698Z,99715.05
2018-07-11T20:52:11.900Z,99706.91
2018-07-11T20:54:42.126Z,99707.12
2018-07-11T20:57:12.685Z,99701.98
2018-07-11T20:59:53.937Z,99709.63
2018-07-11T21:02:35.442Z,99704.20
2018-07-11T21:07:29.043Z,99702.50
2018-07-11T21:11:17.145Z,99697.38
2018-07-11T21:18:04.536Z,99701.13
2018-07-11T21:20:35.003Z,99693.92
2018-07-11T21:23:05.306Z,99686.63
2018-07-11T21:25:35.709Z,99686.91
2018-07-11T21:28:05.945Z,99688.45
2018-07-11T21:30:37.422Z,99687.90
2018-07-11T21:33:11.208Z,99691.64
2018-07-11T21:35:42.797Z,99689.40
2018-07-11T21:38:13.088Z,99704.36
2018-07-11T21:40:43.448Z,99703.11
2018-07-11T21:43:16.267Z,99696.02
2018-07-11T21:45:46.675Z,99700.83
2018-07-11T21:48:16.886Z,99694.00
2018-07-11T21:50:47.810Z,99694.28
2018-07-11T21:53:19.749Z,99697.48
2018-07-11T21:55:49.995Z,99698.64
2018-07-11T21:58:20.369Z,99706.22
2018-07-11T22:00:50.649Z,99713.21
2018-07-11T22:03:20.648Z,99710.03
2018-07-11T22:05:50.861Z,99708.09
2018-07-11T22:08:21.061Z,99698.38
2018-07-11T22:10:51.270Z,99701.51
2018-07-11T22:13:21.538Z,99701.13
2018-07-11T22:15:51.821Z,99705.86
2018-07-11T22:18:35.769Z,99701.33
2018-07-11T22:21:05.625Z,99698.27
2018-07-11T22:23:33.899Z,99700.08
2018-07-11T22:26:02.404Z,99704.70
2018-07-11T22:28:30.678Z,99699.47
2018-07-11T22:30:58.949Z,99701.33
2018-07-11T22:33:27.328Z,99700.70
2018-07-11T22:35:55.986Z,99699.28
2018-07-11T22:38:24.281Z,99699.89
2018-07-11T22:40:52.618Z,99705.82
2018-07-11T22:43:20.973Z,99696.77
2018-07-11T22:45:49.278Z,99693.77
2018-07-11T22:48:17.533Z,99691.89
2018-07-11T22:50:45.928Z,99690.34
2018-07-11T22:53:14.315Z,99696.30
2018-07-11T22:55:42.782Z,99690.66
2018-07-11T22:58:11.424Z,99695.56
2018-07-11T23:00:40.276Z,99702.63
2018-07-11T23:03:08.777Z,99698.55
2018-07-11T23:05:37.092Z,99697.40
2018-07-11T23:08:05.461Z,99696.10
2018-07-11T23:10:33.761Z,99694.75
2018-07-11T23:13:02.014Z,99691.00
2018-07-11T23:15:30.273Z,99692.08
2018-07-11T23:17:58.529Z,99689.94
2018-07-11T23:20:26.876Z,99692.36
2018-07-11T23:22:55.355Z,99687.47
2018-07-11T23:25:23.654Z,99686.95
2018-07-11T23:27:51.925Z,99687.75
2018-07-11T23:30:20.223Z,99678.16
2018-07-11T23:32:48.535Z,99679.59
2018-07-11T23:35:16.795Z,99687.41
2018-07-11T23:37:45.097Z,99682.33
2018-07-11T23:40:13.446Z,99679.33
2018-07-11T23:42:41.709Z,99681.41
2018-07-11T23:45:10.001Z,99673.28
2018-07-11T23:47:38.270Z,99678.09
2018-07-11T23:50:06.533Z,99676.20
2018-07-11T23:52:34.801Z,99681.73
2018-07-11T23:55:03.089Z,99682.89
2018-07-11T23:57:31.403Z,99676.53
2018-07-11T23:59:59.694Z,99685.31
